Time;durP1;ratioP1;P1;durP2;ratioP2;P2;SDS_P1;SDS_P2;PMS_P1;PMS_P2;Temp;Humidity;BMP_temperature;BMP_pressure;BME280_temperature;BME280_humidity;BME280_pressure;Samples;Min_cycle;Max_cycle;Signal;HPM_P1;HPM_P2
2022/03/24 00:00:36;;;;;;;52.78;31.85;;;9.60;79.80;;;;;;5053386;28;20095;-52
2022/03/24 00:03:01;;;;;;;51.20;30.25;;;9.50;79.90;;;;;;5050543;28;20036;-55
2022/03/24 00:05:27;;;;;;;54.30;35.05;;;9.40;81.00;;;;;;5030221;28;20041;-54
2022/03/24 00:07:54;;;;;;;64.20;36.90;;;9.30;82.20;;;;;;5030529;28;20065;-53
2022/03/24 00:10:20;;;;;;;79.88;47.72;;;9.20;82.20;;;;;;5052994;28;20500;-49
2022/03/24 00:12:46;;;;;;;70.38;43.00;;;9.00;82.80;;;;;;5051617;28;20113;-54
2022/03/24 00:15:12;;;;;;;54.60;33.67;;;8.90;83.10;;;;;;5051445;28;20033;-53
2022/03/24 00:17:38;;;;;;;48.45;29.15;;;8.80;83.00;;;;;;5053819;28;20135;-50
2022/03/24 00:20:05;;;;;;;53.80;31.25;;;8.80;82.80;;;;;;5056798;28;20127;-45
2022/03/24 00:22:31;;;;;;;55.17;32.20;;;8.70;83.70;;;;;;5031469;28;20068;-49
2022/03/24 00:24:56;;;;;;;54.90;31.08;;;8.50;84.10;;;;;;5016107;28;20076;-55
2022/03/24 00:27:22;;;;;;;59.15;35.00;;;8.60;83.70;;;;;;5010681;28;20041;-53
2022/03/24 00:29:48;;;;;;;75.82;42.30;;;8.70;84.20;;;;;;5049199;28;20047;-50
2022/03/24 00:32:14;;;;;;;76.45;43.42;;;8.70;83.60;;;;;;5053055;28;20121;-55
2022/03/24 00:34:40;;;;;;;89.97;49.50;;;8.70;83.50;;;;;;5054325;28;20086;-61
2022/03/24 00:37:06;;;;;;;87.43;47.65;;;8.70;83.20;;;;;;5046800;28;20044;-50
2022/03/24 00:39:34;;;;;;;63.53;38.90;;;8.70;83.70;;;;;;5059090;28;20029;-52
2022/03/24 00:42:11;;;;;;;59.55;35.42;;;8.70;83.70;;;;;;5040200;28;20488;-52
2022/03/24 00:44:41;;;;;;;52.38;34.42;;;8.80;83.50;;;;;;5059323;28;20036;-47
2022/03/24 00:47:07;;;;;;;56.33;30.95;;;8.90;83.30;;;;;;5065087;28;20048;-47
2022/03/24 00:49:33;;;;;;;46.80;29.08;;;8.80;83.60;;;;;;5066126;28;20075;-49
2022/03/24 00:51:59;;;;;;;52.95;32.22;;;8.80;83.50;;;;;;5063775;28;20077;-51
2022/03/24 00:54:25;;;;;;;55.00;33.58;;;8.80;83.30;;;;;;5093921;28;20438;-52
2022/03/24 00:56:50;;;;;;;55.28;31.90;;;8.70;83.80;;;;;;5063828;28;20041;-47
2022/03/24 00:59:16;;;;;;;47.05;28.75;;;8.70;83.60;;;;;;5070198;28;20028;-53
2022/03/24 01:01:42;;;;;;;50.55;30.65;;;8.80;84.50;;;;;;5061385;28;20059;-47
2022/03/24 01:04:09;;;;;;;47.50;30.45;;;8.70;83.60;;;;;;5064020;28;20419;-50
2022/03/24 01:06:35;;;;;;;49.83;30.58;;;8.70;83.70;;;;;;5061086;28;20127;-50
2022/03/24 01:09:05;;;;;;;44.67;29.30;;;8.60;84.10;;;;;;5060784;28;20087;-54
2022/03/24 01:11:31;;;;;;;49.65;31.92;;;8.50;84.30;;;;;;5061235;28;20033;-48
2022/03/24 01:13:57;;;;;;;43.60;29.42;;;8.40;84.90;;;;;;5069454;28;20079;-56
2022/03/24 01:16:24;;;;;;;48.47;28.92;;;8.40;84.80;;;;;;5061511;28;20388;-54
2022/03/24 01:18:52;;;;;;;53.47;29.15;;;8.30;84.80;;;;;;5064270;28;20060;-52
2022/03/24 01:21:18;;;;;;;49.58;27.13;;;8.30;85.30;;;;;;5058580;28;20083;-57
2022/03/24 01:23:47;;;;;;;44.30;27.85;;;8.30;85.10;;;;;;5062505;28;20119;-56
2022/03/24 01:26:15;;;;;;;48.55;28.05;;;8.40;85.00;;;;;;5066175;28;20039;-54
2022/03/24 01:28:41;;;;;;;42.60;27.83;;;8.40;85.00;;;;;;5060860;28;20107;-46
2022/03/24 01:31:11;;;;;;;43.50;27.45;;;8.40;84.70;;;;;;5059815;28;20041;-50
2022/03/24 01:33:39;;;;;;;47.78;28.80;;;8.40;85.00;;;;;;5060837;28;20236;-51
2022/03/24 01:36:10;;;;;;;37.63;26.40;;;8.30;85.00;;;;;;5016674;28;20057;-49
2022/03/24 01:38:37;;;;;;;38.38;25.75;;;8.20;85.20;;;;;;5056814;28;20036;-50
2022/03/24 01:41:03;;;;;;;31.48;22.73;;;8.10;85.90;;;;;;5058510;28;20094;-50
2022/03/24 01:43:30;;;;;;;39.00;23.70;;;8.10;85.80;;;;;;5043903;28;20063;-52
2022/03/24 01:45:56;;;;;;;36.50;24.52;;;8.20;85.30;;;;;;5062288;28;20044;-52
2022/03/24 01:48:22;;;;;;;37.47;24.23;;;8.20;85.30;;;;;;5058730;28;20084;-50
2022/03/24 01:50:48;;;;;;;39.35;24.27;;;8.20;85.00;;;;;;5060189;28;20404;-52
2022/03/24 01:53:14;;;;;;;35.50;24.38;;;8.30;84.70;;;;;;5026005;28;20063;-48
2022/03/24 01:55:41;;;;;;;37.92;21.70;;;8.30;84.50;;;;;;5100306;28;20096;-52
2022/03/24 01:58:08;;;;;;;38.00;20.98;;;8.20;84.50;;;;;;5100607;28;20486;-50
2022/03/24 02:00:34;;;;;;;31.85;20.17;;;8.30;84.40;;;;;;5069769;28;20047;-58
2022/03/24 02:03:03;;;;;;;28.17;19.55;;;8.30;84.40;;;;;;5068342;28;20040;-54
2022/03/24 02:05:33;;;;;;;30.75;20.33;;;8.20;84.50;;;;;;5100788;28;20131;-55
2022/03/24 02:08:03;;;;;;;31.73;20.50;;;8.30;84.60;;;;;;5103218;28;20042;-53
2022/03/24 02:10:31;;;;;;;28.08;20.23;;;8.30;84.30;;;;;;5090231;28;20075;-53
2022/03/24 02:12:57;;;;;;;43.00;23.23;;;8.20;84.70;;;;;;5064508;28;20036;-53
2022/03/24 02:15:25;;;;;;;33.53;21.08;;;8.10;85.10;;;;;;5102223;28;20436;-49
2022/03/24 02:17:52;;;;;;;34.00;21.65;;;8.00;85.30;;;;;;5105878;28;20040;-52
2022/03/24 02:20:18;;;;;;;32.08;21.48;;;8.10;85.40;;;;;;5066685;28;20130;-54
2022/03/24 02:22:44;;;;;;;36.38;20.30;;;8.10;85.10;;;;;;5064843;28;20135;-51
2022/03/24 02:25:10;;;;;;;47.67;34.67;;;8.10;85.10;;;;;;5069260;28;20036;-50
2022/03/24 02:27:37;;;;;;;37.00;26.73;;;8.10;85.10;;;;;;5069657;28;20387;-50
2022/03/24 02:30:04;;;;;;;38.53;24.00;;;8.10;85.40;;;;;;5065037;28;20035;-50
2022/03/24 02:32:30;;;;;;;33.25;22.42;;;8.10;85.30;;;;;;5070759;28;20036;-51
2022/03/24 02:34:56;;;;;;;37.00;24.80;;;8.10;85.20;;;;;;5060803;28;20132;-59
2022/03/24 02:37:25;;;;;;;32.67;23.38;;;8.00;85.40;;;;;;5092901;28;20048;-47
2022/03/24 02:39:56;;;;;;;38.80;24.60;;;7.90;85.80;;;;;;5067078;28;20032;-53
2022/03/24 02:42:27;;;;;;;45.60;23.87;;;7.90;86.00;;;;;;5066711;28;20100;-48
2022/03/24 02:44:58;;;;;;;51.42;27.27;;;7.90;86.20;;;;;;5061468;28;20492;-50
2022/03/24 02:47:24;;;;;;;47.40;29.50;;;7.80;86.30;;;;;;5074143;28;20068;-51
2022/03/24 02:49:53;;;;;;;52.17;30.85;;;7.70;86.50;;;;;;5065974;28;20021;-54
2022/03/24 02:52:19;;;;;;;50.25;30.88;;;7.80;86.50;;;;;;5065994;28;20029;-53
2022/03/24 02:54:45;;;;;;;49.03;29.00;;;7.80;86.10;;;;;;5072822;28;20082;-55
2022/03/24 02:57:11;;;;;;;49.08;26.20;;;7.80;86.20;;;;;;5066823;28;20033;-52
2022/03/24 02:59:37;;;;;;;44.28;26.83;;;7.80;86.20;;;;;;5059793;28;20037;-52
2022/03/24 03:02:12;;;;;;;51.35;25.98;;;7.80;86.30;;;;;;5063525;28;20055;-55
2022/03/24 03:04:39;;;;;;;54.58;28.77;;;7.60;86.80;;;;;;5035798;28;20037;-56
2022/03/24 03:07:05;;;;;;;54.90;27.83;;;7.50;87.30;;;;;;5093497;28;20049;-56
2022/03/24 03:09:33;;;;;;;49.25;25.58;;;7.30;87.50;;;;;;5044646;28;20048;-54
2022/03/24 03:11:59;;;;;;;45.50;25.42;;;7.40;87.80;;;;;;5056908;28;20078;-51
2022/03/24 03:14:27;;;;;;;47.92;27.30;;;7.40;87.30;;;;;;5065159;28;20029;-50
2022/03/24 03:16:53;;;;;;;34.75;20.52;;;7.40;87.10;;;;;;5065007;28;20052;-54
2022/03/24 03:19:19;;;;;;;44.40;24.48;;;7.30;87.00;;;;;;5070623;28;20455;-53
2022/03/24 03:21:50;;;;;;;52.67;29.75;;;7.30;87.30;;;;;;5064036;28;20033;-56
2022/03/24 03:24:18;;;;;;;38.88;23.88;;;7.30;87.30;;;;;;5060633;28;20480;-45
2022/03/24 03:26:44;;;;;;;44.00;22.98;;;7.10;87.20;;;;;;5064882;28;20036;-54
2022/03/24 03:29:11;;;;;;;34.17;18.48;;;7.10;88.00;;;;;;5065444;28;20054;-54
2022/03/24 03:31:37;;;;;;;29.88;18.38;;;7.20;87.50;;;;;;5058520;28;20377;-51
2022/03/24 03:34:04;;;;;;;30.20;17.60;;;7.20;87.30;;;;;;5061751;28;20482;-56
2022/03/24 03:36:33;;;;;;;39.63;20.13;;;7.30;87.10;;;;;;5061571;28;20474;-48
2022/03/24 03:38:59;;;;;;;44.03;26.08;;;7.30;86.80;;;;;;5038527;28;20033;-57
2022/03/24 03:41:27;;;;;;;61.05;34.42;;;7.40;86.80;;;;;;5041056;28;20033;-49
2022/03/24 03:43:53;;;;;;;59.28;35.65;;;7.40;86.50;;;;;;5061927;28;20460;-53
2022/03/24 03:46:19;;;;;;;46.53;26.52;;;7.40;86.60;;;;;;5060694;28;20029;-51
2022/03/24 03:48:45;;;;;;;42.78;25.02;;;7.50;86.50;;;;;;5063853;28;20051;-53
2022/03/24 03:51:12;;;;;;;29.92;19.38;;;7.60;86.30;;;;;;5055208;28;20029;-48
2022/03/24 03:53:38;;;;;;;29.23;16.33;;;7.60;86.00;;;;;;5061556;28;20056;-52
2022/03/24 03:56:05;;;;;;;23.65;15.25;;;7.60;85.60;;;;;;5055092;28;20515;-50
2022/03/24 03:58:31;;;;;;;28.38;16.48;;;7.70;85.80;;;;;;5063417;28;20456;-55
2022/03/24 04:00:57;;;;;;;22.00;13.20;;;7.60;85.60;;;;;;5065524;28;20051;-55
2022/03/24 04:03:27;;;;;;;23.30;14.10;;;7.70;85.50;;;;;;5071065;28;20531;-52
2022/03/24 04:05:54;;;;;;;24.58;14.38;;;7.70;85.30;;;;;;5034288;28;20096;-50
2022/03/24 04:08:21;;;;;;;25.98;14.40;;;7.70;85.90;;;;;;5047989;28;20091;-52
2022/03/24 04:10:48;;;;;;;25.48;14.75;;;7.70;85.20;;;;;;5063358;28;20119;-55
2022/03/24 04:13:15;;;;;;;27.35;14.30;;;7.70;85.10;;;;;;5063427;28;20540;-47
2022/03/24 04:15:41;;;;;;;24.92;13.18;;;7.70;85.20;;;;;;5054209;28;20029;-52
2022/03/24 04:18:07;;;;;;;25.23;13.65;;;7.60;85.30;;;;;;5056077;28;20120;-57
2022/03/24 04:20:34;;;;;;;29.23;13.88;;;7.60;85.30;;;;;;5052980;28;20511;-48
2022/03/24 04:23:01;;;;;;;21.05;13.65;;;7.50;85.50;;;;;;5054832;28;20384;-50
2022/03/24 04:25:27;;;;;;;26.05;12.55;;;7.60;85.40;;;;;;5055163;28;20550;-54
2022/03/24 04:27:53;;;;;;;26.10;13.20;;;7.50;85.60;;;;;;5043465;28;20060;-53
2022/03/24 04:30:22;;;;;;;25.13;13.55;;;7.50;85.90;;;;;;5082744;28;20048;-51
2022/03/24 04:32:49;;;;;;;20.83;12.70;;;7.60;85.90;;;;;;5056283;28;20060;-56
2022/03/24 04:35:16;;;;;;;24.45;13.50;;;7.50;86.00;;;;;;5061985;28;20391;-51
2022/03/24 04:37:43;;;;;;;24.70;15.32;;;7.50;86.00;;;;;;5054782;28;20028;-55
2022/03/24 04:40:15;;;;;;;29.38;14.48;;;7.50;86.10;;;;;;5066345;28;20032;-51
2022/03/24 04:42:46;;;;;;;34.92;15.40;;;7.50;86.50;;;;;;5087181;28;20047;-56
2022/03/24 04:45:13;;;;;;;34.17;15.52;;;7.50;86.50;;;;;;5048932;28;20379;-50
2022/03/24 04:47:41;;;;;;;34.22;16.65;;;7.50;86.70;;;;;;5053512;28;20090;-56
2022/03/24 04:50:07;;;;;;;37.70;17.67;;;7.40;86.80;;;;;;5053721;28;20411;-51
2022/03/24 04:52:33;;;;;;;32.50;17.60;;;7.40;86.80;;;;;;5052858;28;20124;-55
2022/03/24 04:54:59;;;;;;;31.65;16.73;;;7.40;87.00;;;;;;5053682;28;20111;-57
2022/03/24 04:57:29;;;;;;;33.85;16.55;;;7.30;87.20;;;;;;5055617;28;20040;-51
2022/03/24 04:59:56;;;;;;;35.67;17.55;;;7.30;87.20;;;;;;5058186;28;20063;-46
2022/03/24 05:02:24;;;;;;;38.80;16.50;;;7.30;87.50;;;;;;5057565;28;20064;-60
2022/03/24 05:04:51;;;;;;;32.08;14.63;;;7.20;87.50;;;;;;5054591;28;20033;-56
2022/03/24 05:07:16;;;;;;;28.02;14.40;;;7.20;87.60;;;;;;5054052;28;20060;-56
2022/03/24 05:09:42;;;;;;;33.60;14.65;;;7.30;87.50;;;;;;5049005;28;20111;-48
2022/03/24 05:12:08;;;;;;;36.95;15.10;;;7.30;87.50;;;;;;5085411;28;20047;-53
2022/03/24 05:14:34;;;;;;;41.10;15.60;;;7.30;87.60;;;;;;5034773;28;20037;-55
2022/03/24 05:17:01;;;;;;;46.78;16.08;;;7.40;88.00;;;;;;5056434;28;20037;-53
2022/03/24 05:19:27;;;;;;;43.53;16.40;;;7.40;87.80;;;;;;5052190;28;20118;-47
2022/03/24 05:21:53;;;;;;;62.72;19.08;;;7.40;87.70;;;;;;5051097;28;20033;-48
2022/03/24 05:24:20;;;;;;;38.53;17.33;;;7.50;87.90;;;;;;5059767;28;20126;-51
2022/03/24 05:26:46;;;;;;;38.10;16.30;;;7.50;88.20;;;;;;5062325;28;20037;-56
2022/03/24 05:29:12;;;;;;;41.85;17.17;;;7.50;88.00;;;;;;5021926;28;20033;-49
2022/03/24 05:31:38;;;;;;;31.38;15.93;;;7.50;88.50;;;;;;5053051;28;20028;-50
2022/03/24 05:34:04;;;;;;;31.73;16.05;;;7.60;88.50;;;;;;5049403;28;20138;-51
2022/03/24 05:36:30;;;;;;;41.20;16.85;;;7.60;88.50;;;;;;5053330;28;20033;-53
2022/03/24 05:38:56;;;;;;;33.58;16.52;;;7.70;88.10;;;;;;5053346;28;20028;-46
2022/03/24 05:41:22;;;;;;;61.97;18.98;;;7.70;88.30;;;;;;5062917;28;20025;-48
2022/03/24 05:44:03;;;;;;;43.67;20.10;;;7.80;88.50;;;;;;5073496;28;20048;-46
2022/03/24 05:46:33;;;;;;;53.17;17.83;;;8.00;87.80;;;;;;5062985;28;20037;-54
2022/03/24 05:48:59;;;;;;;40.65;17.67;;;8.10;87.80;;;;;;5079698;28;20048;-55
2022/03/24 05:51:26;;;;;;;43.15;16.70;;;8.10;87.50;;;;;;5050670;28;20025;-51
2022/03/24 05:53:52;;;;;;;34.22;15.80;;;8.20;87.80;;;;;;5054197;28;20523;-48
2022/03/24 05:56:19;;;;;;;33.78;19.63;;;8.20;87.70;;;;;;5055859;28;20047;-53
2022/03/24 05:58:45;;;;;;;53.55;26.17;;;8.30;88.00;;;;;;5057120;28;21545;-56
2022/03/24 06:01:11;;;;;;;40.92;23.70;;;8.30;88.40;;;;;;5059931;28;20033;-47
2022/03/24 06:03:37;;;;;;;45.55;28.48;;;8.50;88.30;;;;;;5059500;28;20114;-50
2022/03/24 06:06:08;;;;;;;48.97;23.88;;;8.70;88.00;;;;;;5039635;28;20453;-47
2022/03/24 06:08:34;;;;;;;40.70;20.90;;;8.90;86.90;;;;;;5076409;28;20044;-48
2022/03/24 06:11:01;;;;;;;42.70;26.75;;;9.10;86.40;;;;;;5052863;28;20112;-48
2022/03/24 06:13:27;;;;;;;38.58;22.67;;;9.20;86.80;;;;;;5051172;28;20094;-55
2022/03/24 06:15:54;;;;;;;44.47;24.00;;;9.40;85.90;;;;;;5052508;28;20041;-52
2022/03/24 06:18:20;;;;;;;34.22;20.95;;;9.50;85.90;;;;;;5050094;28;20049;-51
2022/03/24 06:20:46;;;;;;;26.50;17.05;;;9.60;85.80;;;;;;5054386;28;20127;-54
2022/03/24 06:23:12;;;;;;;31.58;18.98;;;9.70;86.20;;;;;;5053511;28;20045;-53
2022/03/24 06:25:42;;;;;;;27.70;17.67;;;9.80;87.10;;;;;;5015685;28;20037;-55
2022/03/24 06:28:08;;;;;;;25.17;16.60;;;9.80;87.40;;;;;;5048645;28;20044;-49
2022/03/24 06:30:34;;;;;;;31.83;17.10;;;9.60;88.90;;;;;;5052362;28;20041;-55
2022/03/24 06:33:00;;;;;;;27.33;17.67;;;9.90;89.00;;;;;;5053114;28;20044;-55
2022/03/24 06:35:26;;;;;;;64.45;39.47;;;9.70;88.20;;;;;;5052306;28;20512;-54
2022/03/24 06:37:53;;;;;;;263.80;190.23;;;9.70;88.10;;;;;;5053296;28;20127;-57
2022/03/24 06:40:19;;;;;;;113.53;70.05;;;10.10;88.70;;;;;;5044624;28;20436;-55
2022/03/24 06:42:45;;;;;;;48.70;28.15;;;10.50;88.10;;;;;;5054198;28;20615;-51
2022/03/24 06:45:13;;;;;;;31.75;20.70;;;10.80;87.30;;;;;;5042026;28;20037;-53
2022/03/24 06:47:40;;;;;;;220.30;107.93;;;11.20;86.30;;;;;;5042891;28;20057;-54
2022/03/24 06:50:10;;;;;;;66.03;41.05;;;11.50;86.40;;;;;;5047268;28;20570;-54
2022/03/24 06:52:36;;;;;;;46.53;33.30;;;11.80;84.50;;;;;;5064189;28;20050;-55
2022/03/24 06:55:05;;;;;;;28.63;19.38;;;11.40;83.40;;;;;;5063705;28;20047;-51
2022/03/24 06:57:31;;;;;;;31.38;19.85;;;11.50;84.30;;;;;;5065027;28;20051;-51
2022/03/24 06:59:57;;;;;;;31.15;17.70;;;11.80;85.90;;;;;;5064576;28;20117;-52
2022/03/24 07:02:23;;;;;;;28.48;17.30;;;12.10;83.70;;;;;;5058382;28;20515;-54
2022/03/24 07:04:49;;;;;;;28.25;15.38;;;12.10;83.40;;;;;;5064571;28;20033;-54
2022/03/24 07:07:15;;;;;;;23.92;15.43;;;12.00;83.50;;;;;;5056185;28;20143;-51
2022/03/24 07:09:41;;;;;;;25.23;16.77;;;12.20;84.30;;;;;;5044847;28;20045;-54
2022/03/24 07:12:07;;;;;;;25.35;16.35;;;12.40;84.50;;;;;;5062994;28;20551;-52
2022/03/24 07:14:33;;;;;;;30.20;16.63;;;12.50;83.70;;;;;;5030524;28;20170;-51
2022/03/24 07:16:58;;;;;;;30.30;17.35;;;12.80;84.10;;;;;;5054868;28;20127;-53
2022/03/24 07:19:24;;;;;;;27.60;17.20;;;12.90;83.90;;;;;;5062466;28;20036;-56
2022/03/24 07:21:50;;;;;;;28.90;18.63;;;13.00;83.00;;;;;;5062780;28;20064;-52
2022/03/24 07:24:16;;;;;;;34.20;18.83;;;13.10;82.90;;;;;;5064214;28;20032;-52
2022/03/24 07:26:42;;;;;;;36.03;19.20;;;13.20;83.70;;;;;;5050764;28;20068;-56
2022/03/24 07:29:10;;;;;;;40.25;24.52;;;12.90;82.50;;;;;;5045657;28;20072;-54
2022/03/24 07:31:36;;;;;;;28.80;17.40;;;13.40;83.40;;;;;;5067651;28;20038;-53
2022/03/24 07:34:02;;;;;;;25.20;17.10;;;13.70;83.40;;;;;;5045513;28;20030;-52
2022/03/24 07:36:28;;;;;;;23.73;15.85;;;13.90;82.30;;;;;;5044217;28;20036;-51
2022/03/24 07:38:56;;;;;;;25.90;15.63;;;13.80;81.20;;;;;;5044338;28;20130;-51
2022/03/24 07:41:23;;;;;;;36.33;17.45;;;13.90;81.30;;;;;;5038917;28;20051;-52
2022/03/24 07:43:49;;;;;;;27.63;17.15;;;14.20;82.80;;;;;;5046023;28;20033;-52
2022/03/24 07:46:16;;;;;;;26.17;15.18;;;14.70;87.80;;;;;;5046508;28;20039;-52
2022/03/24 07:48:46;;;;;;;30.83;18.02;;;14.80;79.60;;;;;;5040866;28;20106;-52
2022/03/24 07:51:13;;;;;;;27.00;15.20;;;;;;;;;;5044507;28;20041;-56
2022/03/24 07:53:39;;;;;;;22.85;14.88;;;;;;;;;;5044155;28;20057;-52
2022/03/24 07:56:05;;;;;;;26.10;14.13;;;;;;;;;;5043479;28;20026;-51
2022/03/24 07:58:31;;;;;;;25.90;13.35;;;16.00;90.50;;;;;;5046143;28;20041;-51
2022/03/24 08:00:57;;;;;;;33.83;13.82;;;16.40;89.90;;;;;;5051810;28;20381;-53
2022/03/24 08:03:24;;;;;;;18.95;11.65;;;;;;;;;;5038104;28;20502;-51
2022/03/24 08:05:50;;;;;;;20.75;11.00;;;;;;;;;;5042944;28;20024;-55
2022/03/24 08:08:17;;;;;;;24.10;10.30;;;;;;;;;;5043172;28;20399;-54
2022/03/24 08:10:47;;;;;;;19.58;12.30;;;;;;;;;;5048215;28;20032;-51
2022/03/24 08:13:15;;;;;;;18.60;10.52;;;17.50;77.80;;;;;;5048919;28;20053;-52
2022/03/24 08:15:42;;;;;;;32.00;10.05;;;17.70;89.70;;;;;;5048573;28;20046;-55
2022/03/24 08:18:09;;;;;;;23.67;10.38;;;17.80;73.10;;;;;;5089356;28;20414;-57
2022/03/24 08:20:36;;;;;;;18.00;10.23;;;17.60;71.30;;;;;;5051310;28;20036;-55
2022/03/24 08:23:03;;;;;;;15.35;7.90;;;17.90;73.10;;;;;;5091547;28;20125;-55
2022/03/24 08:25:30;;;;;;;18.58;11.35;;;17.70;71.80;;;;;;5091074;28;20105;-51
2022/03/24 08:27:56;;;;;;;19.65;10.25;;;17.90;70.60;;;;;;5088780;28;20449;-55
2022/03/24 08:30:22;;;;;;;18.92;10.85;;;;;;;;;;5091332;28;20031;-50
2022/03/24 08:32:48;;;;;;;25.70;12.48;;;;;;;;;;5091930;28;20036;-55
2022/03/24 08:35:15;;;;;;;21.02;10.13;;;;;;;;;;5014338;28;20479;-54
2022/03/24 08:37:40;;;;;;;17.30;10.13;;;18.80;94.70;;;;;;5082320;28;20602;-53
2022/03/24 08:40:07;;;;;;;17.05;10.10;;;18.80;66.80;;;;;;5082714;28;20016;-55
2022/03/24 08:42:36;;;;;;;22.38;12.05;;;18.70;67.10;;;;;;5068676;28;20032;-55
2022/03/24 08:45:07;;;;;;;19.33;11.07;;;18.90;67.80;;;;;;5081945;28;20032;-49
2022/03/24 08:47:33;;;;;;;19.70;10.82;;;;;;;;;;5035995;28;20064;-55
2022/03/24 08:50:00;;;;;;;21.23;9.75;;;19.00;97.40;;;;;;5056924;28;20488;-55
2022/03/24 08:52:27;;;;;;;19.60;11.73;;;19.20;66.80;;;;;;5048084;28;20032;-53
2022/03/24 08:54:54;;;;;;;18.80;11.80;;;19.10;66.40;;;;;;5049768;28;20033;-54
2022/03/24 08:57:27;;;;;;;19.77;10.00;;;19.10;66.50;;;;;;5050221;28;20037;-48
2022/03/24 08:59:54;;;;;;;19.00;11.02;;;19.40;66.30;;;;;;5050747;28;20029;-48
2022/03/24 09:02:20;;;;;;;16.33;10.18;;;19.50;85.20;;;;;;5049907;28;20029;-49
2022/03/24 09:04:49;;;;;;;26.08;13.40;;;19.70;89.80;;;;;;5066647;28;20373;-49
2022/03/24 09:07:16;;;;;;;19.52;11.20;;;;;;;;;;5050536;28;20424;-54
2022/03/24 09:09:42;;;;;;;22.83;11.93;;;19.80;66.30;;;;;;5066086;28;20419;-57
2022/03/24 09:12:09;;;;;;;25.85;11.43;;;20.40;85.00;;;;;;5050011;28;20036;-57
2022/03/24 09:14:39;;;;;;;22.05;11.57;;;20.30;66.60;;;;;;5050500;28;20036;-58
2022/03/24 09:17:06;;;;;;;21.83;11.63;;;20.60;65.10;;;;;;5048790;28;20424;-56
2022/03/24 09:19:33;;;;;;;21.02;12.02;;;20.90;65.20;;;;;;5050485;28;20025;-54
2022/03/24 09:22:06;;;;;;;19.40;11.82;;;20.60;65.30;;;;;;5049491;28;20123;-54
2022/03/24 09:24:33;;;;;;;32.15;13.20;;;21.00;65.10;;;;;;5048434;28;20041;-53
2022/03/24 09:26:59;;;;;;;15.25;11.13;;;;;;;;;;5044598;28;20362;-58
2022/03/24 09:29:30;;;;;;;21.15;13.35;;;;;;;;;;5041359;28;20477;-54
2022/03/24 09:31:56;;;;;;;30.50;13.77;;;;;;;;;;5049046;28;20040;-52
2022/03/24 09:34:22;;;;;;;17.88;12.35;;;;;;;;;;5037720;28;20052;-56
2022/03/24 09:36:48;;;;;;;21.55;12.00;;;;;;;;;;5065339;28;20489;-54
2022/03/24 09:39:15;;;;;;;18.52;12.02;;;;;;;;;;5047942;28;20040;-49
2022/03/24 09:41:46;;;;;;;28.95;13.80;;;;;;;;;;5075498;28;20095;-52
2022/03/24 09:44:12;;;;;;;26.60;15.23;;;22.70;92.80;;;;;;5041783;28;20032;-51
2022/03/24 09:46:39;;;;;;;37.10;16.23;;;22.90;82.60;;;;;;5041900;28;20053;-50
2022/03/24 09:49:08;;;;;;;22.05;13.18;;;22.40;79.60;;;;;;5042235;28;20072;-54
2022/03/24 09:51:33;;;;;;;25.20;12.60;;;23.10;92.60;;;;;;5042331;28;20063;-56
2022/03/24 09:53:59;;;;;;;21.30;10.63;;;22.40;90.10;;;;;;5042202;28;20033;-50
2022/03/24 09:56:25;;;;;;;20.60;10.98;;;22.00;84.80;;;;;;5071464;28;20125;-55
2022/03/24 09:58:51;;;;;;;19.73;12.77;;;22.30;82.90;;;;;;5044282;28;20487;-52
2022/03/24 10:01:17;;;;;;;13.38;10.05;;;22.50;84.40;;;;;;5043791;28;20037;-48
2022/03/24 10:04:07;;;;;;;29.00;13.23;;;22.00;81.00;;;;;;5036959;28;20033;-48
2022/03/24 10:06:34;;;;;;;17.08;10.07;;;22.40;81.50;;;;;;5041826;28;20428;-56
2022/03/24 10:09:00;;;;;;;26.58;12.57;;;;;;;;;;5038128;28;20112;-52
2022/03/24 10:11:26;;;;;;;17.52;11.63;;;;;;;;;;5043791;28;20033;-54
2022/03/24 10:13:58;;;;;;;16.73;11.27;;;;;;;;;;5038456;28;20032;-58
2022/03/24 10:16:41;;;;;;;22.00;12.77;;;;;;;;;;5041875;28;20042;-54
2022/03/24 10:19:10;;;;;;;16.08;9.82;;;;;;;;;;5036608;28;20065;-52
2022/03/24 10:21:37;;;;;;;15.77;10.52;;;;;;;;;;5044144;28;20025;-52
2022/03/24 10:24:21;;;;;;;14.75;9.77;;;24.10;79.90;;;;;;5045422;28;20048;-50
2022/03/24 10:27:02;;;;;;;30.10;12.05;;;22.80;59.10;;;;;;5044506;28;20091;-53
2022/03/24 10:29:28;;;;;;;15.60;11.03;;;;;;;;;;5045630;28;20400;-53
2022/03/24 10:31:59;;;;;;;32.58;12.57;;;;;;;;;;5041287;28;20536;-47
2022/03/24 10:34:37;;;;;;;14.95;10.52;;;23.30;78.50;;;;;;5035316;28;20032;-56
2022/03/24 10:37:19;;;;;;;21.75;10.50;;;;;;;;;;5041286;28;20041;-53
2022/03/24 10:39:57;;;;;;;11.50;7.95;;;23.60;86.10;;;;;;5037084;28;20034;-51
2022/03/24 10:42:26;;;;;;;19.40;10.63;;;23.20;58.00;;;;;;5065392;28;20441;-50
2022/03/24 10:45:14;;;;;;;20.65;9.23;;;23.20;59.50;;;;;;5043208;28;20025;-58
2022/03/24 10:47:48;;;;;;;22.77;9.18;;;23.10;59.40;;;;;;5042819;28;20094;-51
2022/03/24 10:50:20;;;;;;;14.98;8.40;;;;;;;;;;5045143;28;20036;-53
2022/03/24 10:52:47;;;;;;;18.52;9.20;;;23.20;93.50;;;;;;5043259;28;20037;-57
2022/03/24 10:55:16;;;;;;;14.57;8.95;;;23.60;58.40;;;;;;5052853;28;20064;-51
2022/03/24 10:57:42;;;;;;;13.75;8.57;;;23.90;57.90;;;;;;5044951;28;20436;-50
2022/03/24 11:00:09;;;;;;;14.35;8.68;;;23.80;59.60;;;;;;5045824;28;20025;-54
2022/03/24 11:02:36;;;;;;;10.68;7.70;;;;;;;;;;5046915;28;20106;-52
2022/03/24 11:05:12;;;;;;;14.95;7.97;;;24.10;57.30;;;;;;5044945;28;20025;-55
2022/03/24 11:07:38;;;;;;;10.25;7.30;;;24.30;57.40;;;;;;5040829;28;20041;-52
2022/03/24 11:10:15;;;;;;;15.48;7.00;;;24.50;65.30;;;;;;5051127;28;20067;-53
2022/03/24 11:12:43;;;;;;;12.23;7.53;;;24.30;56.20;;;;;;5058493;28;20041;-59
2022/03/24 11:15:10;;;;;;;19.58;8.88;;;;;;;;;;5050311;28;20041;-53
2022/03/24 11:17:39;;;;;;;12.15;6.65;;;24.90;56.60;;;;;;5041454;28;20048;-51
2022/03/24 11:20:23;;;;;;;14.27;7.80;;;24.30;66.70;;;;;;5044633;28;20032;-55
2022/03/24 11:22:53;;;;;;;13.48;7.55;;;23.70;56.40;;;;;;5054626;28;20083;-47
2022/03/24 11:25:20;;;;;;;16.60;8.82;;;23.30;56.70;;;;;;5042864;28;20032;-49
2022/03/24 11:27:47;;;;;;;17.10;7.97;;;23.50;57.60;;;;;;5046375;28;20094;-50
2022/03/24 11:30:15;;;;;;;15.93;6.63;;;23.70;57.70;;;;;;5043667;28;20520;-54
2022/03/24 11:32:44;;;;;;;38.70;31.77;;;23.80;56.60;;;;;;5040306;28;20059;-55
2022/03/24 11:35:11;;;;;;;14.38;6.18;;;24.30;55.50;;;;;;5052405;28;20036;-47
2022/03/24 11:37:37;;;;;;;10.13;6.70;;;24.40;56.20;;;;;;5050676;28;20408;-50
2022/03/24 11:40:25;;;;;;;14.15;6.93;;;24.30;55.60;;;;;;5045076;28;20032;-59
2022/03/24 11:43:07;;;;;;;13.10;5.88;;;24.30;53.40;;;;;;5044587;28;20029;-59
2022/03/24 11:45:50;;;;;;;11.25;6.40;;;23.90;53.50;;;;;;5049749;28;20379;-57
2022/03/24 11:48:18;;;;;;;10.65;6.32;;;23.90;53.70;;;;;;5040263;28;20063;-50
2022/03/24 11:50:52;;;;;;;18.95;7.82;;;24.40;53.40;;;;;;5045593;28;20039;-57
2022/03/24 11:53:27;;;;;;;9.90;6.55;;;24.40;54.10;;;;;;5078401;28;20120;-53
2022/03/24 11:55:59;;;;;;;13.93;7.97;;;;;;;;;;5048135;28;20377;-53
2022/03/24 11:58:25;;;;;;;18.50;7.90;;;;;;;;;;5047559;28;20029;-56
2022/03/24 12:00:51;;;;;;;12.75;6.90;;;24.90;54.80;;;;;;5047465;28;20036;-51
2022/03/24 12:03:42;;;;;;;11.63;6.90;;;25.00;55.40;;;;;;5068114;28;20029;-50
2022/03/24 12:06:09;;;;;;;7.38;5.47;;;24.70;54.10;;;;;;5069169;28;20033;-53
2022/03/24 12:08:50;;;;;;;16.17;7.28;;;24.10;56.60;;;;;;5051986;28;20029;-55
2022/03/24 12:11:31;;;;;;;10.57;6.43;;;24.30;70.50;;;;;;5050071;28;20059;-55
2022/03/24 12:14:00;;;;;;;11.43;6.05;;;24.70;72.50;;;;;;5050061;28;20405;-50
2022/03/24 12:16:27;;;;;;;8.73;6.38;;;;;;;;;;5051586;28;20029;-50
2022/03/24 12:18:53;;;;;;;9.20;5.35;;;;;;;;;;5050751;28;20085;-50
2022/03/24 12:21:28;;;;;;;11.10;5.35;;;24.80;58.90;;;;;;5049635;28;20246;-50
2022/03/24 12:24:07;;;;;;;9.65;5.10;;;24.50;54.80;;;;;;5050332;28;20048;-52
2022/03/24 12:26:47;;;;;;;18.05;6.15;;;24.10;64.60;;;;;;5051313;28;20079;-52
2022/03/24 12:29:12;;;;;;;25.20;7.13;;;24.70;65.40;;;;;;5051208;28;20036;-48
2022/03/24 12:32:01;;;;;;;10.18;6.25;;;24.70;53.40;;;;;;5052011;28;20415;-47
2022/03/24 12:34:44;;;;;;;11.20;5.85;;;24.80;53.80;;;;;;5051293;28;20075;-50
2022/03/24 12:37:31;;;;;;;7.22;4.55;;;24.40;54.30;;;;;;5049601;28;21213;-53
2022/03/24 12:40:07;;;;;;;9.00;5.32;;;24.30;53.40;;;;;;5042914;28;20043;-53
2022/03/24 12:42:42;;;;;;;8.40;4.78;;;24.40;52.70;;;;;;5048663;28;20045;-54
2022/03/24 12:45:10;;;;;;;7.68;3.97;;;24.20;52.30;;;;;;5049427;28;20036;-51
2022/03/24 12:47:43;;;;;;;9.82;4.88;;;24.00;75.10;;;;;;5052967;28;20041;-51
2022/03/24 12:50:29;;;;;;;16.08;6.50;;;23.90;54.80;;;;;;5051559;28;20108;-49